CMA weather

Camarillo Airport
Camarillo, California, United States

Public forecast

Using degrees Fahrenheit for public forecast. Weather courtesy of forecast.io.

METAR (pilot weather report)

Retrieved 2019/05/19 16:55 UTC (56 minutes ago):

KCMA 191655Z 00000KT 10SM FEW008 OVC014 13/11 A2989 RMK AO2 RAE34 SLP131 P0001 T01330106

TAF (pilot weather forecast)

Retrieved 2019/05/19 12:36 UTC (5 hours ago):

TAF KCMA 191136Z 1912/2012 07008KT P6SM -RA BKN020 BKN025 OVC030 FM191400 06008KT P6SM -RA SCT015 OVC025 FM191700 22012KT P6SM VCSH BKN035 FM192000 26012G18KT P6SM VCSH BKN035 FM192300 26015G25KT P6SM VCSH OVC025 FM200300 26015KT P6SM OVC050 FM201000 30012KT P6SM SKC